DAL2009 KBOS-KRDU
Flight info
| Callsign | DAL2009 |
|---|---|
| Flight time | N/A |
| Altitude | 36000 |
| Route | SSOXS7 SSOXS Q167 ZJAAY TAQLE3 |
| Aircraft | A20N/M-SDE2E3FGHIRWXY/LB1 |
Departure
| Time | 2026-05-07 00:17 |
|---|---|
| Airport | Boston Logan International Airport (KBOS) |
Arrival
| Time | N/A |
|---|---|
| Airport | Raleigh-Durham International Airport (KRDU) |
| Time | Latitude | Longitude | Altitude | Speed | Heading |
|---|---|---|---|---|---|
| 2026-05-06 23:06 | 42.36355 | -71.02073 | 29 ft | 0 kts | 4° |
| 2026-05-06 23:48 | 42.36351 | -71.02074 | 25 ft | 2 kts | 4° |
| 2026-05-06 23:48 | 42.36339 | -71.02075 | 29 ft | 3 kts | 4° |
| 2026-05-06 23:48 | 42.36321 | -71.02077 | 28 ft | 3 kts | 358° |
| 2026-05-06 23:48 | 42.36306 | -71.02072 | 26 ft | 3 kts | 298° |
| 2026-05-06 23:49 | 42.36303 | -71.02051 | 28 ft | 3 kts | 228° |
| 2026-05-06 23:49 | 42.36310 | -71.02042 | 30 ft | 2 kts | 207° |
| 2026-05-06 23:49 | 42.36323 | -71.02033 | 29 ft | 1 kts | 207° |
| 2026-05-06 23:49 | 42.36324 | -71.02032 | 29 ft | 0 kts | 207° |
| 2026-05-06 23:51 | 42.36319 | -71.02036 | 29 ft | 2 kts | 207° |
| 2026-05-06 23:52 | 42.36300 | -71.02055 | 27 ft | 4 kts | 226° |
| 2026-05-06 23:52 | 42.36287 | -71.02105 | 28 ft | 7 kts | 256° |
| 2026-05-06 23:52 | 42.36279 | -71.02180 | 29 ft | 7 kts | 292° |
| 2026-05-06 23:52 | 42.36314 | -71.02245 | 27 ft | 10 kts | 303° |
| 2026-05-06 23:53 | 42.36295 | -71.02334 | 26 ft | 11 kts | 208° |
| 2026-05-06 23:53 | 42.36216 | -71.02346 | 25 ft | 9 kts | 183° |
| 2026-05-06 23:53 | 42.36193 | -71.02348 | 27 ft | 0 kts | 183° |
| 2026-05-06 23:54 | 42.36171 | -71.02350 | 26 ft | 7 kts | 183° |
| 2026-05-06 23:54 | 42.36108 | -71.02336 | 26 ft | 11 kts | 154° |
| 2026-05-06 23:54 | 42.36042 | -71.02279 | 25 ft | 12 kts | 133° |
| 2026-05-06 23:54 | 42.35993 | -71.02168 | 26 ft | 15 kts | 120° |
| 2026-05-06 23:55 | 42.35937 | -71.02039 | 27 ft | 17 kts | 121° |
| 2026-05-06 23:55 | 42.35880 | -71.01912 | 25 ft | 14 kts | 120° |
| 2026-05-06 23:55 | 42.35845 | -71.01777 | 27 ft | 14 kts | 103° |
| 2026-05-06 23:55 | 42.35824 | -71.01644 | 25 ft | 10 kts | 98° |
| 2026-05-06 23:56 | 42.35857 | -71.01564 | 29 ft | 12 kts | 15° |
| 2026-05-06 23:56 | 42.35944 | -71.01524 | 27 ft | 15 kts | 19° |
| 2026-05-06 23:56 | 42.36054 | -71.01471 | 25 ft | 18 kts | 19° |
| 2026-05-06 23:56 | 42.36181 | -71.01410 | 30 ft | 15 kts | 19° |
| 2026-05-06 23:57 | 42.36289 | -71.01357 | 26 ft | 17 kts | 20° |
| 2026-05-06 23:57 | 42.36388 | -71.01310 | 27 ft | 13 kts | 19° |
| 2026-05-06 23:57 | 42.36481 | -71.01265 | 28 ft | 16 kts | 20° |
| 2026-05-06 23:57 | 42.36578 | -71.01218 | 26 ft | 11 kts | 19° |
| 2026-05-06 23:58 | 42.36662 | -71.01178 | 25 ft | 15 kts | 20° |
| 2026-05-06 23:58 | 42.36745 | -71.01141 | 25 ft | 11 kts | 9° |
| 2026-05-06 23:58 | 42.36797 | -71.01161 | 29 ft | 0 kts | 315° |
| 2026-05-06 23:59 | 42.36806 | -71.01173 | 25 ft | 3 kts | 315° |
| 2026-05-06 23:59 | 42.36807 | -71.01173 | 25 ft | 0 kts | 315° |
| 2026-05-07 00:03 | 42.36807 | -71.01174 | 25 ft | 1 kts | 315° |
| 2026-05-07 00:03 | 42.36821 | -71.01193 | 27 ft | 6 kts | 315° |
| 2026-05-07 00:04 | 42.36867 | -71.01254 | 28 ft | 12 kts | 315° |
| 2026-05-07 00:04 | 42.36934 | -71.01344 | 27 ft | 16 kts | 315° |
| 2026-05-07 00:04 | 42.37019 | -71.01455 | 25 ft | 18 kts | 319° |
| 2026-05-07 00:04 | 42.37111 | -71.01575 | 25 ft | 20 kts | 318° |
| 2026-05-07 00:05 | 42.37192 | -71.01614 | 27 ft | 12 kts | 27° |
| 2026-05-07 00:05 | 42.37220 | -71.01516 | 28 ft | 12 kts | 111° |
| 2026-05-07 00:05 | 42.37158 | -71.01430 | 26 ft | 14 kts | 135° |
| 2026-05-07 00:05 | 42.37084 | -71.01331 | 25 ft | 16 kts | 135° |
| 2026-05-07 00:06 | 42.37021 | -71.01246 | 29 ft | 10 kts | 135° |
| 2026-05-07 00:06 | 42.37013 | -71.01236 | 26 ft | 0 kts | 135° |
| 2026-05-07 00:10 | 42.37000 | -71.01219 | 25 ft | 8 kts | 135° |
| 2026-05-07 00:11 | 42.36970 | -71.01149 | 28 ft | 8 kts | 69° |
| 2026-05-07 00:11 | 42.37024 | -71.01087 | 27 ft | 13 kts | 26° |
| 2026-05-07 00:11 | 42.37114 | -71.01028 | 28 ft | 16 kts | 25° |
| 2026-05-07 00:11 | 42.37225 | -71.00956 | 26 ft | 19 kts | 25° |
| 2026-05-07 00:12 | 42.37343 | -71.00888 | 29 ft | 19 kts | 24° |
| 2026-05-07 00:12 | 42.37466 | -71.00830 | 25 ft | 18 kts | 18° |
| 2026-05-07 00:12 | 42.37579 | -71.00775 | 26 ft | 12 kts | 20° |
| 2026-05-07 00:12 | 42.37672 | -71.00728 | 25 ft | 16 kts | 20° |
| 2026-05-07 00:13 | 42.37760 | -71.00685 | 25 ft | 12 kts | 18° |
| 2026-05-07 00:13 | 42.37794 | -71.00669 | 25 ft | 0 kts | 20° |
| 2026-05-07 00:14 | 42.37802 | -71.00665 | 27 ft | 3 kts | 20° |
| 2026-05-07 00:14 | 42.37827 | -71.00647 | 25 ft | 5 kts | 39° |
| 2026-05-07 00:14 | 42.37839 | -71.00590 | 25 ft | 7 kts | 107° |
| 2026-05-07 00:14 | 42.37835 | -71.00577 | 25 ft | 0 kts | 110° |
| 2026-05-07 00:15 | 42.37835 | -71.00576 | 25 ft | 1 kts | 110° |
| 2026-05-07 00:15 | 42.37829 | -71.00553 | 26 ft | 5 kts | 110° |
| 2026-05-07 00:15 | 42.37808 | -71.00492 | 26 ft | 7 kts | 140° |
| 2026-05-07 00:15 | 42.37755 | -71.00492 | 25 ft | 8 kts | 201° |
| 2026-05-07 00:16 | 42.37745 | -71.00496 | 25 ft | 1 kts | 199° |
| 2026-05-07 00:16 | 42.37678 | -71.00528 | 25 ft | 34 kts | 199° |
| 2026-05-07 00:16 | 42.37230 | -71.00743 | 27 ft | 99 kts | 200° |
| 2026-05-07 00:16 | 42.36423 | -71.01131 | 148 ft | 136 kts | 201° |
| 2026-05-07 00:17 | 42.35545 | -71.01563 | 801 ft | 132 kts | 201° |
| 2026-05-07 00:17 | 42.34680 | -71.01967 | 1505 ft | 129 kts | 202° |
| 2026-05-07 00:17 | 42.33786 | -71.02258 | 2028 ft | 147 kts | 184° |
| 2026-05-07 00:17 | 42.32746 | -71.01628 | 2360 ft | 186 kts | 149° |
| 2026-05-07 00:18 | 42.31923 | -71.00075 | 2674 ft | 220 kts | 122° |
| 2026-05-07 00:18 | 42.31275 | -70.98093 | 3013 ft | 242 kts | 115° |
| 2026-05-07 00:18 | 42.31070 | -70.95762 | 3604 ft | 257 kts | 82° |
| 2026-05-07 00:18 | 42.31479 | -70.93396 | 4507 ft | 265 kts | 76° |
| 2026-05-07 00:19 | 42.31892 | -70.90870 | 5099 ft | 286 kts | 78° |
| 2026-05-07 00:19 | 42.32293 | -70.88138 | 5730 ft | 305 kts | 79° |
| 2026-05-07 00:19 | 42.32691 | -70.85295 | 6666 ft | 309 kts | 80° |
| 2026-05-07 00:19 | 42.33082 | -70.82419 | 7584 ft | 315 kts | 83° |
| 2026-05-07 00:20 | 42.33024 | -70.79469 | 8460 ft | 316 kts | 107° |
| 2026-05-07 00:20 | 42.32251 | -70.76719 | 9392 ft | 314 kts | 121° |
| 2026-05-07 00:20 | 42.31309 | -70.74010 | 10246 ft | 321 kts | 121° |
| 2026-05-07 00:20 | 42.30314 | -70.71206 | 10709 ft | 341 kts | 125° |
| 2026-05-07 00:21 | 42.28815 | -70.68706 | 11033 ft | 348 kts | 148° |
| 2026-05-07 00:21 | 42.26735 | -70.67146 | 11727 ft | 338 kts | 168° |
| 2026-05-07 00:21 | 42.24502 | -70.66126 | 12633 ft | 340 kts | 169° |
| 2026-05-07 00:21 | 42.22253 | -70.65099 | 13538 ft | 343 kts | 169° |
| 2026-05-07 00:22 | 42.20012 | -70.64073 | 14328 ft | 346 kts | 169° |
| 2026-05-07 00:22 | 42.17718 | -70.63024 | 15084 ft | 350 kts | 169° |
| 2026-05-07 00:22 | 42.15390 | -70.62161 | 15830 ft | 344 kts | 179° |
| 2026-05-07 00:22 | 42.13038 | -70.62038 | 16587 ft | 336 kts | 192° |
| 2026-05-07 00:23 | 42.10771 | -70.62656 | 17335 ft | 330 kts | 204° |
| 2026-05-07 00:23 | 42.08588 | -70.63644 | 18080 ft | 333 kts | 204° |
| 2026-05-07 00:23 | 42.06376 | -70.64634 | 18690 ft | 337 kts | 204° |
| 2026-05-07 00:23 | 42.04133 | -70.65628 | 19256 ft | 342 kts | 204° |
| 2026-05-07 00:24 | 42.01847 | -70.66635 | 19846 ft | 347 kts | 205° |
| 2026-05-07 00:24 | 41.99533 | -70.67652 | 20440 ft | 352 kts | 205° |
| 2026-05-07 00:24 | 41.97193 | -70.68680 | 20981 ft | 356 kts | 205° |
| 2026-05-07 00:24 | 41.94815 | -70.69724 | 21535 ft | 362 kts | 205° |
| 2026-05-07 00:25 | 41.92411 | -70.70779 | 22108 ft | 366 kts | 206° |
| 2026-05-07 00:25 | 41.89973 | -70.71848 | 22671 ft | 371 kts | 206° |
| 2026-05-07 00:25 | 41.88343 | -70.72563 | 23044 ft | 373 kts | 206° |
| 2026-05-07 00:25 | 41.85859 | -70.73651 | 23569 ft | 378 kts | 206° |
| 2026-05-07 00:26 | 41.83419 | -70.74903 | 24109 ft | 373 kts | 212° |
| 2026-05-07 00:26 | 41.81127 | -70.76485 | 24663 ft | 369 kts | 217° |
| 2026-05-07 00:26 | 41.78881 | -70.78191 | 25148 ft | 371 kts | 218° |
| 2026-05-07 00:26 | 41.76625 | -70.79895 | 25662 ft | 373 kts | 218° |
| 2026-05-07 00:27 | 41.74353 | -70.81606 | 26169 ft | 375 kts | 218° |
| 2026-05-07 00:27 | 41.72073 | -70.83320 | 26651 ft | 377 kts | 218° |
| 2026-05-07 00:27 | 41.69775 | -70.85044 | 27129 ft | 379 kts | 218° |
| 2026-05-07 00:27 | 41.67471 | -70.86770 | 27596 ft | 381 kts | 218° |
| 2026-05-07 00:28 | 41.65154 | -70.88505 | 28083 ft | 382 kts | 218° |
| 2026-05-07 00:28 | 41.62834 | -70.90239 | 28600 ft | 382 kts | 218° |
| 2026-05-07 00:28 | 41.60506 | -70.91978 | 28965 ft | 385 kts | 218° |
| 2026-05-07 00:28 | 41.58172 | -70.93746 | 29328 ft | 385 kts | 220° |
| 2026-05-07 00:29 | 41.56002 | -70.95782 | 29733 ft | 379 kts | 227° |
| 2026-05-07 00:29 | 41.54073 | -70.98144 | 30093 ft | 374 kts | 233° |
| 2026-05-07 00:30 | 41.49548 | -71.06480 | 31073 ft | 373 kts | 242° |
| 2026-05-07 00:30 | 41.48110 | -71.09361 | 31491 ft | 372 kts | 242° |
| 2026-05-07 00:30 | 41.46675 | -71.12224 | 31927 ft | 371 kts | 242° |
| 2026-05-07 00:30 | 41.45258 | -71.15045 | 32345 ft | 370 kts | 242° |
| 2026-05-07 00:31 | 41.43807 | -71.17933 | 32655 ft | 371 kts | 242° |
| 2026-05-07 00:31 | 41.42372 | -71.20788 | 33040 ft | 370 kts | 243° |
| 2026-05-07 00:31 | 41.40941 | -71.23630 | 33454 ft | 369 kts | 243° |
| 2026-05-07 00:31 | 41.39514 | -71.26463 | 33853 ft | 368 kts | 243° |
| 2026-05-07 00:32 | 41.38090 | -71.29289 | 34185 ft | 367 kts | 243° |
| 2026-05-07 00:32 | 41.36669 | -71.32105 | 34513 ft | 365 kts | 243° |
| 2026-05-07 00:32 | 41.35251 | -71.34913 | 34828 ft | 365 kts | 243° |
| 2026-05-07 00:32 | 41.33839 | -71.37710 | 35130 ft | 364 kts | 243° |
| 2026-05-07 00:33 | 41.32432 | -71.40498 | 35435 ft | 363 kts | 243° |
| 2026-05-07 00:33 | 41.31021 | -71.43289 | 35727 ft | 362 kts | 243° |
| 2026-05-07 00:33 | 41.29617 | -71.46065 | 35859 ft | 361 kts | 243° |
| 2026-05-07 00:33 | 41.28234 | -71.48796 | 35869 ft | 360 kts | 243° |
| 2026-05-07 00:34 | 41.25436 | -71.54318 | 35869 ft | 360 kts | 244° |
| 2026-05-07 00:34 | 41.22641 | -71.59818 | 35865 ft | 357 kts | 243° |
| 2026-05-07 00:35 | 41.19858 | -71.65290 | 35874 ft | 358 kts | 243° |
| 2026-05-07 00:35 | 41.17065 | -71.70770 | 35870 ft | 358 kts | 243° |
| 2026-05-07 00:36 | 41.14271 | -71.76240 | 35836 ft | 358 kts | 244° |
| 2026-05-07 00:36 | 41.11495 | -71.81697 | 35858 ft | 357 kts | 244° |
| 2026-05-07 00:37 | 41.08721 | -71.87157 | 35857 ft | 357 kts | 244° |
| 2026-05-07 00:37 | 41.05943 | -71.92609 | 35872 ft | 357 kts | 244° |
| 2026-05-07 00:38 | 41.03284 | -71.98134 | 35874 ft | 353 kts | 248° |
| 2026-05-07 00:38 | 41.01180 | -72.03915 | 35875 ft | 350 kts | 251° |
| 2026-05-07 00:39 | 40.99130 | -72.09761 | 35846 ft | 350 kts | 251° |
| 2026-05-07 00:39 | 40.97073 | -72.15589 | 35867 ft | 349 kts | 251° |
| 2026-05-07 00:40 | 40.95010 | -72.21418 | 35876 ft | 349 kts | 251° |
| 2026-05-07 00:40 | 40.92852 | -72.27198 | 35895 ft | 353 kts | 247° |
| 2026-05-07 00:41 | 40.90086 | -72.32639 | 35887 ft | 360 kts | 240° |
| 2026-05-07 00:41 | 40.86666 | -72.37599 | 35884 ft | 368 kts | 234° |
| 2026-05-07 00:42 | 40.83019 | -72.42337 | 35846 ft | 367 kts | 235° |
| 2026-05-07 00:42 | 40.79356 | -72.46970 | 35885 ft | 371 kts | 232° |
| 2026-05-07 00:43 | 40.75352 | -72.51314 | 35880 ft | 373 kts | 231° |
| 2026-05-07 00:43 | 40.71340 | -72.55655 | 35868 ft | 373 kts | 231° |
| 2026-05-07 00:44 | 40.67349 | -72.60011 | 35873 ft | 371 kts | 232° |
| 2026-05-07 00:44 | 40.63485 | -72.64487 | 35886 ft | 369 kts | 233° |
| 2026-05-07 00:45 | 40.59626 | -72.68963 | 35884 ft | 370 kts | 233° |
| 2026-05-07 00:45 | 40.55777 | -72.73389 | 35884 ft | 370 kts | 232° |
| 2026-05-07 00:46 | 40.51896 | -72.77835 | 35885 ft | 370 kts | 232° |
| 2026-05-07 00:46 | 40.48017 | -72.82271 | 35849 ft | 370 kts | 232° |
| 2026-05-07 00:47 | 40.44142 | -72.86692 | 35876 ft | 369 kts | 233° |
| 2026-05-07 00:47 | 40.40269 | -72.91111 | 35877 ft | 369 kts | 233° |
| 2026-05-07 00:48 | 40.36391 | -72.95525 | 35889 ft | 369 kts | 233° |
| 2026-05-07 00:48 | 40.32500 | -72.99947 | 35891 ft | 369 kts | 233° |
| 2026-05-07 00:49 | 40.28616 | -73.04352 | 35871 ft | 368 kts | 233° |
| 2026-05-07 00:49 | 40.24740 | -73.08745 | 35877 ft | 369 kts | 233° |
| 2026-05-07 00:50 | 40.20880 | -73.13112 | 35877 ft | 369 kts | 233° |
| 2026-05-07 00:50 | 40.16990 | -73.17505 | 35883 ft | 370 kts | 233° |
| 2026-05-07 00:51 | 40.13097 | -73.21895 | 35889 ft | 370 kts | 233° |
| 2026-05-07 00:51 | 40.09189 | -73.26293 | 35874 ft | 370 kts | 233° |
| 2026-05-07 00:52 | 40.05281 | -73.30680 | 35900 ft | 371 kts | 233° |
| 2026-05-07 00:52 | 40.01363 | -73.35066 | 35905 ft | 371 kts | 233° |
| 2026-05-07 00:53 | 39.97440 | -73.39454 | 35903 ft | 371 kts | 233° |